sensor_id;sensor_type;location;lat;lon;timestamp;P1;durP1;ratioP1;P2;durP2;ratioP2
10617;SDS011;5356;43.526;26.534;2023-08-20T00:00:06;7.53;;;6.03;;
10617;SDS011;5356;43.526;26.534;2023-08-20T00:02:33;9.43;;;5.88;;
10617;SDS011;5356;43.526;26.534;2023-08-20T00:05:01;6.85;;;5.60;;
10617;SDS011;5356;43.526;26.534;2023-08-20T00:07:30;7.55;;;5.70;;
10617;SDS011;5356;43.526;26.534;2023-08-20T00:09:56;7.38;;;5.75;;
10617;SDS011;5356;43.526;26.534;2023-08-20T00:12:21;7.28;;;6.40;;
10617;SDS011;5356;43.526;26.534;2023-08-20T00:15:00;7.30;;;5.80;;
10617;SDS011;5356;43.526;26.534;2023-08-20T00:17:30;6.57;;;5.50;;
10617;SDS011;5356;43.526;26.534;2023-08-20T00:19:59;6.78;;;5.53;;
10617;SDS011;5356;43.526;26.534;2023-08-20T00:22:25;8.93;;;6.28;;
10617;SDS011;5356;43.526;26.534;2023-08-20T00:24:54;6.32;;;5.20;;
10617;SDS011;5356;43.526;26.534;2023-08-20T00:27:21;8.40;;;5.72;;
10617;SDS011;5356;43.526;26.534;2023-08-20T00:29:46;9.40;;;5.55;;
10617;SDS011;5356;43.526;26.534;2023-08-20T00:32:14;7.00;;;6.30;;
10617;SDS011;5356;43.526;26.534;2023-08-20T00:34:40;7.13;;;6.20;;
10617;SDS011;5356;43.526;26.534;2023-08-20T00:37:05;9.18;;;5.85;;
10617;SDS011;5356;43.526;26.534;2023-08-20T00:39:31;8.75;;;6.03;;
10617;SDS011;5356;43.526;26.534;2023-08-20T00:41:57;8.65;;;6.25;;
10617;SDS011;5356;43.526;26.534;2023-08-20T00:44:23;6.18;;;5.53;;
10617;SDS011;5356;43.526;26.534;2023-08-20T00:46:48;9.38;;;6.45;;
10617;SDS011;5356;43.526;26.534;2023-08-20T00:49:15;8.93;;;6.10;;
10617;SDS011;5356;43.526;26.534;2023-08-20T00:51:42;8.85;;;5.85;;
10617;SDS011;5356;43.526;26.534;2023-08-20T00:54:08;7.47;;;6.13;;
10617;SDS011;5356;43.526;26.534;2023-08-20T00:56:34;8.93;;;6.00;;
10617;SDS011;5356;43.526;26.534;2023-08-20T00:59:00;8.40;;;6.22;;
10617;SDS011;5356;43.526;26.534;2023-08-20T01:01:26;8.52;;;6.40;;
10617;SDS011;5356;43.526;26.534;2023-08-20T01:03:51;8.45;;;5.95;;
10617;SDS011;5356;43.526;26.534;2023-08-20T01:09:28;8.48;;;5.70;;
10617;SDS011;5356;43.526;26.534;2023-08-20T01:11:57;7.18;;;5.95;;
10617;SDS011;5356;43.526;26.534;2023-08-20T01:14:25;7.93;;;5.50;;
10617;SDS011;5356;43.526;26.534;2023-08-20T01:16:51;9.95;;;6.50;;
10617;SDS011;5356;43.526;26.534;2023-08-20T01:19:17;9.15;;;5.78;;
10617;SDS011;5356;43.526;26.534;2023-08-20T01:22:28;6.85;;;5.05;;
10617;SDS011;5356;43.526;26.534;2023-08-20T01:27:50;9.73;;;6.43;;
10617;SDS011;5356;43.526;26.534;2023-08-20T01:30:23;7.82;;;6.35;;
10617;SDS011;5356;43.526;26.534;2023-08-20T01:32:50;10.32;;;5.88;;
10617;SDS011;5356;43.526;26.534;2023-08-20T01:35:17;7.20;;;6.35;;
10617;SDS011;5356;43.526;26.534;2023-08-20T01:37:43;8.02;;;6.20;;
10617;SDS011;5356;43.526;26.534;2023-08-20T01:40:09;8.57;;;5.75;;
10617;SDS011;5356;43.526;26.534;2023-08-20T01:42:38;9.27;;;6.88;;
10617;SDS011;5356;43.526;26.534;2023-08-20T01:45:05;8.52;;;6.82;;
10617;SDS011;5356;43.526;26.534;2023-08-20T01:47:31;7.32;;;6.07;;
10617;SDS011;5356;43.526;26.534;2023-08-20T01:49:57;8.43;;;6.15;;
10617;SDS011;5356;43.526;26.534;2023-08-20T01:52:23;7.93;;;6.40;;
10617;SDS011;5356;43.526;26.534;2023-08-20T01:54:49;7.95;;;5.85;;
10617;SDS011;5356;43.526;26.534;2023-08-20T01:57:15;7.68;;;6.03;;
10617;SDS011;5356;43.526;26.534;2023-08-20T01:59:40;9.63;;;6.05;;
10617;SDS011;5356;43.526;26.534;2023-08-20T02:02:05;8.25;;;6.25;;
10617;SDS011;5356;43.526;26.534;2023-08-20T02:04:31;6.90;;;5.90;;
10617;SDS011;5356;43.526;26.534;2023-08-20T02:06:58;8.82;;;6.95;;
10617;SDS011;5356;43.526;26.534;2023-08-20T02:09:23;8.48;;;5.47;;
10617;SDS011;5356;43.526;26.534;2023-08-20T02:11:49;7.65;;;6.03;;
10617;SDS011;5356;43.526;26.534;2023-08-20T02:14:16;7.75;;;5.90;;
10617;SDS011;5356;43.526;26.534;2023-08-20T02:16:41;7.70;;;6.10;;
10617;SDS011;5356;43.526;26.534;2023-08-20T02:19:07;8.65;;;5.80;;
10617;SDS011;5356;43.526;26.534;2023-08-20T02:21:32;10.40;;;6.28;;
10617;SDS011;5356;43.526;26.534;2023-08-20T02:23:58;8.65;;;5.97;;
10617;SDS011;5356;43.526;26.534;2023-08-20T02:26:23;8.13;;;5.80;;
10617;SDS011;5356;43.526;26.534;2023-08-20T02:28:49;8.20;;;6.32;;
10617;SDS011;5356;43.526;26.534;2023-08-20T02:31:14;10.45;;;7.07;;
10617;SDS011;5356;43.526;26.534;2023-08-20T02:33:40;10.45;;;6.57;;
10617;SDS011;5356;43.526;26.534;2023-08-20T02:36:06;9.57;;;6.07;;
10617;SDS011;5356;43.526;26.534;2023-08-20T02:38:32;7.85;;;5.85;;
10617;SDS011;5356;43.526;26.534;2023-08-20T02:40:58;7.20;;;5.65;;
10617;SDS011;5356;43.526;26.534;2023-08-20T02:43:23;8.52;;;5.47;;
10617;SDS011;5356;43.526;26.534;2023-08-20T02:45:49;7.75;;;6.30;;
10617;SDS011;5356;43.526;26.534;2023-08-20T02:48:14;7.18;;;5.65;;
10617;SDS011;5356;43.526;26.534;2023-08-20T02:50:40;6.90;;;5.50;;
10617;SDS011;5356;43.526;26.534;2023-08-20T02:53:06;7.82;;;6.53;;
10617;SDS011;5356;43.526;26.534;2023-08-20T02:55:32;8.70;;;5.65;;
10617;SDS011;5356;43.526;26.534;2023-08-20T02:57:58;8.27;;;5.93;;
10617;SDS011;5356;43.526;26.534;2023-08-20T03:00:24;6.80;;;5.50;;
10617;SDS011;5356;43.526;26.534;2023-08-20T03:02:49;8.00;;;5.93;;
10617;SDS011;5356;43.526;26.534;2023-08-20T03:05:15;8.10;;;5.95;;
10617;SDS011;5356;43.526;26.534;2023-08-20T03:07:40;6.75;;;6.03;;
10617;SDS011;5356;43.526;26.534;2023-08-20T03:10:06;8.88;;;6.05;;
10617;SDS011;5356;43.526;26.534;2023-08-20T03:12:31;7.43;;;5.88;;
10617;SDS011;5356;43.526;26.534;2023-08-20T03:14:59;6.88;;;5.35;;
10617;SDS011;5356;43.526;26.534;2023-08-20T03:17:25;10.52;;;5.32;;
10617;SDS011;5356;43.526;26.534;2023-08-20T03:19:57;8.30;;;5.60;;
10617;SDS011;5356;43.526;26.534;2023-08-20T03:22:24;6.50;;;5.82;;
10617;SDS011;5356;43.526;26.534;2023-08-20T03:24:51;8.90;;;6.60;;
10617;SDS011;5356;43.526;26.534;2023-08-20T03:27:17;12.63;;;6.85;;
10617;SDS011;5356;43.526;26.534;2023-08-20T03:29:43;7.47;;;5.78;;
10617;SDS011;5356;43.526;26.534;2023-08-20T03:32:09;8.65;;;6.13;;
10617;SDS011;5356;43.526;26.534;2023-08-20T03:34:34;7.82;;;5.68;;
10617;SDS011;5356;43.526;26.534;2023-08-20T03:37:00;9.80;;;6.28;;
10617;SDS011;5356;43.526;26.534;2023-08-20T03:39:26;7.82;;;6.00;;
10617;SDS011;5356;43.526;26.534;2023-08-20T03:41:52;8.77;;;6.55;;
10617;SDS011;5356;43.526;26.534;2023-08-20T03:44:18;8.70;;;6.72;;
10617;SDS011;5356;43.526;26.534;2023-08-20T03:46:43;12.18;;;6.88;;
10617;SDS011;5356;43.526;26.534;2023-08-20T03:49:09;8.75;;;6.55;;
10617;SDS011;5356;43.526;26.534;2023-08-20T03:51:35;7.60;;;6.03;;
10617;SDS011;5356;43.526;26.534;2023-08-20T03:54:00;10.25;;;6.10;;
10617;SDS011;5356;43.526;26.534;2023-08-20T03:56:26;8.70;;;5.88;;
10617;SDS011;5356;43.526;26.534;2023-08-20T03:58:52;8.40;;;6.00;;
10617;SDS011;5356;43.526;26.534;2023-08-20T04:01:18;9.82;;;6.75;;
10617;SDS011;5356;43.526;26.534;2023-08-20T04:03:45;9.25;;;6.45;;
10617;SDS011;5356;43.526;26.534;2023-08-20T04:06:12;9.82;;;6.32;;
10617;SDS011;5356;43.526;26.534;2023-08-20T04:08:37;8.15;;;6.38;;
10617;SDS011;5356;43.526;26.534;2023-08-20T04:11:03;12.68;;;6.00;;
10617;SDS011;5356;43.526;26.534;2023-08-20T04:13:29;8.07;;;5.97;;
10617;SDS011;5356;43.526;26.534;2023-08-20T04:15:54;9.05;;;6.22;;
10617;SDS011;5356;43.526;26.534;2023-08-20T04:18:20;6.97;;;5.65;;
10617;SDS011;5356;43.526;26.534;2023-08-20T04:20:47;9.13;;;6.68;;
10617;SDS011;5356;43.526;26.534;2023-08-20T04:23:12;8.07;;;6.03;;
10617;SDS011;5356;43.526;26.534;2023-08-20T04:25:38;8.90;;;5.85;;
10617;SDS011;5356;43.526;26.534;2023-08-20T04:28:03;9.18;;;6.70;;
10617;SDS011;5356;43.526;26.534;2023-08-20T04:30:29;8.43;;;6.60;;
10617;SDS011;5356;43.526;26.534;2023-08-20T04:32:54;9.18;;;6.97;;
10617;SDS011;5356;43.526;26.534;2023-08-20T04:35:20;6.88;;;5.10;;
10617;SDS011;5356;43.526;26.534;2023-08-20T04:37:46;8.20;;;6.57;;
10617;SDS011;5356;43.526;26.534;2023-08-20T04:40:11;10.38;;;6.35;;
10617;SDS011;5356;43.526;26.534;2023-08-20T04:42:37;11.68;;;6.95;;
10617;SDS011;5356;43.526;26.534;2023-08-20T04:45:03;7.72;;;6.15;;
10617;SDS011;5356;43.526;26.534;2023-08-20T04:47:29;7.57;;;6.05;;
10617;SDS011;5356;43.526;26.534;2023-08-20T04:49:54;8.07;;;6.68;;
10617;SDS011;5356;43.526;26.534;2023-08-20T04:52:19;7.43;;;5.90;;
10617;SDS011;5356;43.526;26.534;2023-08-20T04:54:46;7.57;;;6.05;;
10617;SDS011;5356;43.526;26.534;2023-08-20T04:57:12;7.82;;;6.03;;
10617;SDS011;5356;43.526;26.534;2023-08-20T04:59:37;8.52;;;6.63;;
10617;SDS011;5356;43.526;26.534;2023-08-20T05:02:03;10.18;;;6.40;;
10617;SDS011;5356;43.526;26.534;2023-08-20T05:04:29;8.98;;;7.13;;
10617;SDS011;5356;43.526;26.534;2023-08-20T05:06:54;10.43;;;7.53;;
10617;SDS011;5356;43.526;26.534;2023-08-20T05:09:20;8.95;;;6.55;;
10617;SDS011;5356;43.526;26.534;2023-08-20T05:11:46;9.75;;;7.18;;
10617;SDS011;5356;43.526;26.534;2023-08-20T05:14:12;12.98;;;6.95;;
10617;SDS011;5356;43.526;26.534;2023-08-20T05:16:37;11.38;;;7.10;;
10617;SDS011;5356;43.526;26.534;2023-08-20T05:19:03;9.88;;;7.30;;
10617;SDS011;5356;43.526;26.534;2023-08-20T05:21:28;9.38;;;7.38;;
10617;SDS011;5356;43.526;26.534;2023-08-20T05:23:53;10.15;;;7.70;;
10617;SDS011;5356;43.526;26.534;2023-08-20T05:26:19;9.80;;;7.38;;
10617;SDS011;5356;43.526;26.534;2023-08-20T05:28:46;9.73;;;6.80;;
10617;SDS011;5356;43.526;26.534;2023-08-20T05:31:12;10.07;;;6.93;;
10617;SDS011;5356;43.526;26.534;2023-08-20T05:33:37;9.63;;;6.50;;
10617;SDS011;5356;43.526;26.534;2023-08-20T05:36:03;7.32;;;6.38;;
10617;SDS011;5356;43.526;26.534;2023-08-20T05:38:28;10.25;;;7.00;;
10617;SDS011;5356;43.526;26.534;2023-08-20T05:40:54;9.48;;;7.10;;
10617;SDS011;5356;43.526;26.534;2023-08-20T05:43:19;9.07;;;7.03;;
10617;SDS011;5356;43.526;26.534;2023-08-20T05:45:45;10.27;;;6.97;;
10617;SDS011;5356;43.526;26.534;2023-08-20T05:48:10;9.07;;;7.88;;
10617;SDS011;5356;43.526;26.534;2023-08-20T05:50:36;8.77;;;7.45;;
10617;SDS011;5356;43.526;26.534;2023-08-20T05:53:01;8.70;;;6.63;;
10617;SDS011;5356;43.526;26.534;2023-08-20T05:55:26;10.65;;;7.00;;
10617;SDS011;5356;43.526;26.534;2023-08-20T05:57:52;10.05;;;7.05;;
10617;SDS011;5356;43.526;26.534;2023-08-20T06:00:17;8.50;;;6.88;;
10617;SDS011;5356;43.526;26.534;2023-08-20T06:02:43;9.70;;;7.18;;
10617;SDS011;5356;43.526;26.534;2023-08-20T06:05:09;7.93;;;6.25;;
10617;SDS011;5356;43.526;26.534;2023-08-20T06:07:35;11.50;;;6.80;;
10617;SDS011;5356;43.526;26.534;2023-08-20T06:10:00;10.77;;;7.57;;
10617;SDS011;5356;43.526;26.534;2023-08-20T06:12:26;10.15;;;7.25;;
10617;SDS011;5356;43.526;26.534;2023-08-20T06:15:25;7.82;;;6.60;;
10617;SDS011;5356;43.526;26.534;2023-08-20T06:17:56;8.45;;;6.72;;
10617;SDS011;5356;43.526;26.534;2023-08-20T06:23:22;9.82;;;6.65;;
10617;SDS011;5356;43.526;26.534;2023-08-20T06:29:12;6.78;;;6.00;;
10617;SDS011;5356;43.526;26.534;2023-08-20T06:31:59;9.68;;;6.13;;
10617;SDS011;5356;43.526;26.534;2023-08-20T06:38:20;8.07;;;5.88;;
10617;SDS011;5356;43.526;26.534;2023-08-20T06:41:10;7.28;;;6.22;;
10617;SDS011;5356;43.526;26.534;2023-08-20T06:52:54;9.45;;;5.88;;
10617;SDS011;5356;43.526;26.534;2023-08-20T06:55:59;9.45;;;5.78;;
10617;SDS011;5356;43.526;26.534;2023-08-20T06:58:20;6.22;;;5.30;;
10617;SDS011;5356;43.526;26.534;2023-08-20T07:03:14;10.05;;;6.13;;
10617;SDS011;5356;43.526;26.534;2023-08-20T07:09:23;6.28;;;5.18;;
10617;SDS011;5356;43.526;26.534;2023-08-20T07:15:14;5.10;;;4.30;;
10617;SDS011;5356;43.526;26.534;2023-08-20T07:17:53;10.32;;;5.30;;
10617;SDS011;5356;43.526;26.534;2023-08-20T07:20:54;7.00;;;4.75;;
10617;SDS011;5356;43.526;26.534;2023-08-20T07:23:48;6.25;;;4.57;;
10617;SDS011;5356;43.526;26.534;2023-08-20T07:26:48;7.65;;;5.22;;
10617;SDS011;5356;43.526;26.534;2023-08-20T07:29:38;6.43;;;4.85;;
10617;SDS011;5356;43.526;26.534;2023-08-20T07:32:25;5.47;;;4.35;;
10617;SDS011;5356;43.526;26.534;2023-08-20T07:35:19;4.53;;;4.07;;
10617;SDS011;5356;43.526;26.534;2023-08-20T07:37:51;5.90;;;4.47;;
10617;SDS011;5356;43.526;26.534;2023-08-20T07:40:28;4.72;;;3.90;;
10617;SDS011;5356;43.526;26.534;2023-08-20T07:42:59;6.22;;;4.28;;
10617;SDS011;5356;43.526;26.534;2023-08-20T07:45:40;4.70;;;4.25;;
10617;SDS011;5356;43.526;26.534;2023-08-20T07:48:19;6.57;;;5.03;;
10617;SDS011;5356;43.526;26.534;2023-08-20T07:50:47;5.38;;;4.30;;
10617;SDS011;5356;43.526;26.534;2023-08-20T07:53:34;5.60;;;4.00;;
10617;SDS011;5356;43.526;26.534;2023-08-20T07:56:26;6.22;;;4.20;;
10617;SDS011;5356;43.526;26.534;2023-08-20T07:59:10;7.95;;;4.10;;
10617;SDS011;5356;43.526;26.534;2023-08-20T08:01:43;4.82;;;4.30;;
10617;SDS011;5356;43.526;26.534;2023-08-20T08:04:18;4.43;;;4.00;;
10617;SDS011;5356;43.526;26.534;2023-08-20T08:10:05;5.65;;;4.13;;
10617;SDS011;5356;43.526;26.534;2023-08-20T08:13:08;5.07;;;4.57;;
10617;SDS011;5356;43.526;26.534;2023-08-20T08:15:55;5.82;;;4.10;;
10617;SDS011;5356;43.526;26.534;2023-08-20T08:19:09;5.78;;;4.20;;
10617;SDS011;5356;43.526;26.534;2023-08-20T08:21:40;4.82;;;3.75;;
10617;SDS011;5356;43.526;26.534;2023-08-20T08:27:32;5.57;;;4.00;;
10617;SDS011;5356;43.526;26.534;2023-08-20T08:30:11;5.10;;;4.60;;
10617;SDS011;5356;43.526;26.534;2023-08-20T08:32:49;7.22;;;4.18;;
10617;SDS011;5356;43.526;26.534;2023-08-20T08:35:14;5.95;;;4.25;;
10617;SDS011;5356;43.526;26.534;2023-08-20T08:37:40;6.18;;;3.80;;
10617;SDS011;5356;43.526;26.534;2023-08-20T08:40:06;5.38;;;3.85;;
10617;SDS011;5356;43.526;26.534;2023-08-20T08:42:35;5.93;;;4.07;;
10617;SDS011;5356;43.526;26.534;2023-08-20T08:45:00;7.07;;;3.85;;
10617;SDS011;5356;43.526;26.534;2023-08-20T08:47:27;4.90;;;3.83;;
10617;SDS011;5356;43.526;26.534;2023-08-20T08:49:54;4.22;;;3.78;;
10617;SDS011;5356;43.526;26.534;2023-08-20T08:52:22;15.35;;;5.97;;
10617;SDS011;5356;43.526;26.534;2023-08-20T08:54:48;5.05;;;4.40;;
10617;SDS011;5356;43.526;26.534;2023-08-20T08:57:14;5.38;;;4.03;;
10617;SDS011;5356;43.526;26.534;2023-08-20T08:59:40;5.32;;;3.92;;
10617;SDS011;5356;43.526;26.534;2023-08-20T09:02:10;5.30;;;3.80;;
10617;SDS011;5356;43.526;26.534;2023-08-20T09:04:39;6.43;;;3.90;;
10617;SDS011;5356;43.526;26.534;2023-08-20T09:07:09;6.60;;;4.22;;
10617;SDS011;5356;43.526;26.534;2023-08-20T09:09:42;5.70;;;4.03;;
10617;SDS011;5356;43.526;26.534;2023-08-20T09:12:15;5.10;;;4.05;;
10617;SDS011;5356;43.526;26.534;2023-08-20T09:14:48;4.40;;;3.75;;
10617;SDS011;5356;43.526;26.534;2023-08-20T09:17:16;6.65;;;4.40;;
10617;SDS011;5356;43.526;26.534;2023-08-20T09:19:42;4.32;;;3.92;;
10617;SDS011;5356;43.526;26.534;2023-08-20T09:22:12;4.97;;;4.53;;
10617;SDS011;5356;43.526;26.534;2023-08-20T09:27:07;6.30;;;4.47;;
10617;SDS011;5356;43.526;26.534;2023-08-20T09:29:33;4.40;;;3.90;;
10617;SDS011;5356;43.526;26.534;2023-08-20T09:32:09;5.38;;;4.60;;
10617;SDS011;5356;43.526;26.534;2023-08-20T09:34:39;6.28;;;3.95;;
10617;SDS011;5356;43.526;26.534;2023-08-20T09:37:14;5.82;;;4.53;;
10617;SDS011;5356;43.526;26.534;2023-08-20T09:39:40;5.53;;;4.35;;
10617;SDS011;5356;43.526;26.534;2023-08-20T09:42:07;8.15;;;4.40;;
10617;SDS011;5356;43.526;26.534;2023-08-20T09:44:34;8.85;;;4.57;;
10617;SDS011;5356;43.526;26.534;2023-08-20T09:47:02;4.68;;;4.22;;
10617;SDS011;5356;43.526;26.534;2023-08-20T09:49:32;4.85;;;3.88;;
10617;SDS011;5356;43.526;26.534;2023-08-20T09:52:03;6.07;;;4.18;;
10617;SDS011;5356;43.526;26.534;2023-08-20T09:57:38;4.43;;;3.97;;
10617;SDS011;5356;43.526;26.534;2023-08-20T10:00:06;6.88;;;4.38;;
10617;SDS011;5356;43.526;26.534;2023-08-20T10:02:36;7.82;;;3.97;;
10617;SDS011;5356;43.526;26.534;2023-08-20T10:05:03;5.22;;;3.65;;
10617;SDS011;5356;43.526;26.534;2023-08-20T10:07:31;5.55;;;4.25;;
10617;SDS011;5356;43.526;26.534;2023-08-20T10:09:57;4.60;;;3.67;;
10617;SDS011;5356;43.526;26.534;2023-08-20T10:12:28;6.43;;;4.25;;
10617;SDS011;5356;43.526;26.534;2023-08-20T10:15:01;4.68;;;4.07;;
10617;SDS011;5356;43.526;26.534;2023-08-20T10:17:32;4.32;;;3.92;;
10617;SDS011;5356;43.526;26.534;2023-08-20T10:19:58;4.78;;;4.05;;
10617;SDS011;5356;43.526;26.534;2023-08-20T10:22:45;4.55;;;4.07;;
10617;SDS011;5356;43.526;26.534;2023-08-20T10:25:11;10.15;;;4.80;;
10617;SDS011;5356;43.526;26.534;2023-08-20T10:27:46;7.03;;;3.88;;
10617;SDS011;5356;43.526;26.534;2023-08-20T10:30:33;5.00;;;3.80;;
10617;SDS011;5356;43.526;26.534;2023-08-20T10:32:57;4.88;;;4.38;;
10617;SDS011;5356;43.526;26.534;2023-08-20T10:35:29;4.53;;;4.05;;
10617;SDS011;5356;43.526;26.534;2023-08-20T10:38:15;5.60;;;4.53;;
10617;SDS011;5356;43.526;26.534;2023-08-20T10:44:08;4.40;;;3.85;;
10617;SDS011;5356;43.526;26.534;2023-08-20T10:48:46;4.68;;;3.85;;
10617;SDS011;5356;43.526;26.534;2023-08-20T10:51:15;7.03;;;4.43;;
10617;SDS011;5356;43.526;26.534;2023-08-20T10:59:07;5.43;;;4.10;;
10617;SDS011;5356;43.526;26.534;2023-08-20T11:01:45;5.00;;;4.10;;
10617;SDS011;5356;43.526;26.534;2023-08-20T11:04:15;6.53;;;4.57;;
10617;SDS011;5356;43.526;26.534;2023-08-20T11:06:43;4.55;;;4.15;;
10617;SDS011;5356;43.526;26.534;2023-08-20T11:09:09;5.25;;;4.07;;
10617;SDS011;5356;43.526;26.534;2023-08-20T11:12:23;6.25;;;4.38;;
10617;SDS011;5356;43.526;26.534;2023-08-20T11:17:31;6.95;;;4.03;;
10617;SDS011;5356;43.526;26.534;2023-08-20T11:20:25;5.53;;;4.20;;
10617;SDS011;5356;43.526;26.534;2023-08-20T11:23:28;5.22;;;4.22;;
10617;SDS011;5356;43.526;26.534;2023-08-20T11:26:45;4.40;;;4.00;;
10617;SDS011;5356;43.526;26.534;2023-08-20T11:29:16;5.18;;;4.22;;
10617;SDS011;5356;43.526;26.534;2023-08-20T11:32:14;5.15;;;3.70;;
10617;SDS011;5356;43.526;26.534;2023-08-20T11:35:07;4.53;;;3.60;;
10617;SDS011;5356;43.526;26.534;2023-08-20T11:37:49;6.05;;;4.05;;
10617;SDS011;5356;43.526;26.534;2023-08-20T11:46:41;7.95;;;4.80;;
10617;SDS011;5356;43.526;26.534;2023-08-20T11:49:09;6.50;;;3.97;;
10617;SDS011;5356;43.526;26.534;2023-08-20T11:52:10;5.75;;;4.10;;
10617;SDS011;5356;43.526;26.534;2023-08-20T11:58:14;7.38;;;4.35;;
10617;SDS011;5356;43.526;26.534;2023-08-20T12:00:49;4.57;;;3.75;;
10617;SDS011;5356;43.526;26.534;2023-08-20T12:03:36;5.45;;;3.63;;
10617;SDS011;5356;43.526;26.534;2023-08-20T12:06:17;4.65;;;3.90;;
10617;SDS011;5356;43.526;26.534;2023-08-20T12:08:56;4.88;;;3.85;;
10617;SDS011;5356;43.526;26.534;2023-08-20T12:11:27;4.28;;;3.95;;
10617;SDS011;5356;43.526;26.534;2023-08-20T12:14:01;5.10;;;4.13;;
10617;SDS011;5356;43.526;26.534;2023-08-20T12:16:40;4.78;;;4.30;;
10617;SDS011;5356;43.526;26.534;2023-08-20T12:19:09;4.18;;;3.88;;
10617;SDS011;5356;43.526;26.534;2023-08-20T12:21:49;5.72;;;4.13;;
10617;SDS011;5356;43.526;26.534;2023-08-20T12:24:23;6.60;;;4.15;;
10617;SDS011;5356;43.526;26.534;2023-08-20T12:27:02;4.40;;;3.97;;
10617;SDS011;5356;43.526;26.534;2023-08-20T12:30:02;4.03;;;3.63;;
10617;SDS011;5356;43.526;26.534;2023-08-20T12:36:02;4.45;;;4.05;;
10617;SDS011;5356;43.526;26.534;2023-08-20T12:38:52;5.55;;;3.65;;
10617;SDS011;5356;43.526;26.534;2023-08-20T12:41:24;4.30;;;3.88;;
10617;SDS011;5356;43.526;26.534;2023-08-20T12:44:29;3.38;;;2.97;;
10617;SDS011;5356;43.526;26.534;2023-08-20T12:47:12;4.15;;;2.78;;
10617;SDS011;5356;43.526;26.534;2023-08-20T12:52:39;4.90;;;3.00;;
10617;SDS011;5356;43.526;26.534;2023-08-20T12:55:29;4.95;;;2.47;;
10617;SDS011;5356;43.526;26.534;2023-08-20T12:58:15;4.43;;;2.70;;
10617;SDS011;5356;43.526;26.534;2023-08-20T13:01:20;3.63;;;2.55;;
10617;SDS011;5356;43.526;26.534;2023-08-20T13:07:36;3.10;;;2.53;;
10617;SDS011;5356;43.526;26.534;2023-08-20T13:10:01;2.92;;;2.20;;
10617;SDS011;5356;43.526;26.534;2023-08-20T13:12:27;4.22;;;2.03;;
10617;SDS011;5356;43.526;26.534;2023-08-20T13:14:57;2.20;;;2.00;;
10617;SDS011;5356;43.526;26.534;2023-08-20T13:17:23;4.40;;;2.30;;
10617;SDS011;5356;43.526;26.534;2023-08-20T13:19:49;2.13;;;1.90;;
10617;SDS011;5356;43.526;26.534;2023-08-20T13:22:14;2.33;;;2.08;;
10617;SDS011;5356;43.526;26.534;2023-08-20T13:25:00;2.80;;;2.15;;
10617;SDS011;5356;43.526;26.534;2023-08-20T13:27:25;2.28;;;2.08;;
10617;SDS011;5356;43.526;26.534;2023-08-20T13:29:51;3.35;;;2.30;;
10617;SDS011;5356;43.526;26.534;2023-08-20T13:32:16;3.08;;;2.17;;
10617;SDS011;5356;43.526;26.534;2023-08-20T13:34:41;3.45;;;2.10;;
10617;SDS011;5356;43.526;26.534;2023-08-20T13:37:07;3.40;;;3.10;;
10617;SDS011;5356;43.526;26.534;2023-08-20T13:39:32;2.55;;;2.33;;
10617;SDS011;5356;43.526;26.534;2023-08-20T13:41:58;6.03;;;2.22;;
10617;SDS011;5356;43.526;26.534;2023-08-20T13:44:23;3.30;;;2.17;;
10617;SDS011;5356;43.526;26.534;2023-08-20T13:46:50;2.35;;;2.15;;
10617;SDS011;5356;43.526;26.534;2023-08-20T13:49:15;4.82;;;2.15;;
10617;SDS011;5356;43.526;26.534;2023-08-20T13:51:41;2.75;;;2.00;;
10617;SDS011;5356;43.526;26.534;2023-08-20T13:54:06;2.88;;;2.30;;
10617;SDS011;5356;43.526;26.534;2023-08-20T13:56:32;5.47;;;2.58;;
10617;SDS011;5356;43.526;26.534;2023-08-20T13:58:57;6.40;;;2.67;;
10617;SDS011;5356;43.526;26.534;2023-08-20T14:01:23;4.43;;;2.78;;
10617;SDS011;5356;43.526;26.534;2023-08-20T14:03:48;4.00;;;2.13;;
10617;SDS011;5356;43.526;26.534;2023-08-20T14:06:15;2.35;;;2.15;;
10617;SDS011;5356;43.526;26.534;2023-08-20T14:08:41;2.80;;;2.20;;
10617;SDS011;5356;43.526;26.534;2023-08-20T14:11:07;2.55;;;2.35;;
10617;SDS011;5356;43.526;26.534;2023-08-20T14:13:32;2.70;;;2.30;;
10617;SDS011;5356;43.526;26.534;2023-08-20T14:15:58;2.88;;;2.30;;
10617;SDS011;5356;43.526;26.534;2023-08-20T14:18:25;2.97;;;2.45;;
10617;SDS011;5356;43.526;26.534;2023-08-20T14:20:50;4.70;;;2.70;;
10617;SDS011;5356;43.526;26.534;2023-08-20T14:23:16;3.08;;;2.78;;
10617;SDS011;5356;43.526;26.534;2023-08-20T14:25:41;3.95;;;2.83;;
10617;SDS011;5356;43.526;26.534;2023-08-20T14:28:07;3.65;;;2.50;;
10617;SDS011;5356;43.526;26.534;2023-08-20T14:30:37;2.80;;;2.50;;
10617;SDS011;5356;43.526;26.534;2023-08-20T14:33:03;2.88;;;2.50;;
10617;SDS011;5356;43.526;26.534;2023-08-20T14:35:29;3.28;;;2.70;;
10617;SDS011;5356;43.526;26.534;2023-08-20T14:37:55;2.80;;;2.50;;
10617;SDS011;5356;43.526;26.534;2023-08-20T14:40:20;2.53;;;2.30;;
10617;SDS011;5356;43.526;26.534;2023-08-20T14:42:46;5.05;;;2.60;;
10617;SDS011;5356;43.526;26.534;2023-08-20T14:45:11;4.07;;;2.42;;
10617;SDS011;5356;43.526;26.534;2023-08-20T14:47:37;3.15;;;2.30;;
10617;SDS011;5356;43.526;26.534;2023-08-20T14:50:03;2.85;;;2.15;;
10617;SDS011;5356;43.526;26.534;2023-08-20T14:52:28;4.68;;;2.45;;
10617;SDS011;5356;43.526;26.534;2023-08-20T14:54:54;4.25;;;2.88;;
10617;SDS011;5356;43.526;26.534;2023-08-20T14:57:19;5.65;;;2.40;;
10617;SDS011;5356;43.526;26.534;2023-08-20T14:59:45;2.45;;;2.25;;
10617;SDS011;5356;43.526;26.534;2023-08-20T15:02:10;3.67;;;2.22;;
10617;SDS011;5356;43.526;26.534;2023-08-20T15:04:36;3.78;;;2.63;;
10617;SDS011;5356;43.526;26.534;2023-08-20T15:07:03;2.92;;;2.38;;
10617;SDS011;5356;43.526;26.534;2023-08-20T15:09:28;5.70;;;2.40;;
10617;SDS011;5356;43.526;26.534;2023-08-20T15:11:54;2.72;;;2.22;;
10617;SDS011;5356;43.526;26.534;2023-08-20T15:14:19;4.18;;;2.75;;
10617;SDS011;5356;43.526;26.534;2023-08-20T15:16:45;2.28;;;2.03;;
10617;SDS011;5356;43.526;26.534;2023-08-20T15:19:10;3.25;;;2.60;;
10617;SDS011;5356;43.526;26.534;2023-08-20T15:21:36;6.53;;;2.30;;
10617;SDS011;5356;43.526;26.534;2023-08-20T15:24:01;2.75;;;2.50;;
10617;SDS011;5356;43.526;26.534;2023-08-20T15:26:28;2.47;;;1.90;;
10617;SDS011;5356;43.526;26.534;2023-08-20T15:28:54;3.05;;;2.75;;
10617;SDS011;5356;43.526;26.534;2023-08-20T15:31:19;2.85;;;2.60;;
10617;SDS011;5356;43.526;26.534;2023-08-20T15:33:45;3.28;;;2.97;;
10617;SDS011;5356;43.526;26.534;2023-08-20T15:36:10;4.85;;;2.13;;
10617;SDS011;5356;43.526;26.534;2023-08-20T15:38:36;3.15;;;2.58;;
10617;SDS011;5356;43.526;26.534;2023-08-20T15:41:02;3.13;;;2.13;;
10617;SDS011;5356;43.526;26.534;2023-08-20T15:43:27;2.53;;;2.20;;
10617;SDS011;5356;43.526;26.534;2023-08-20T15:45:53;3.80;;;2.40;;
10617;SDS011;5356;43.526;26.534;2023-08-20T15:48:18;2.67;;;2.10;;
10617;SDS011;5356;43.526;26.534;2023-08-20T15:50:44;3.47;;;2.10;;
10617;SDS011;5356;43.526;26.534;2023-08-20T15:53:09;6.80;;;2.85;;
10617;SDS011;5356;43.526;26.534;2023-08-20T15:55:36;5.40;;;2.47;;
10617;SDS011;5356;43.526;26.534;2023-08-20T15:58:01;3.80;;;2.97;;
10617;SDS011;5356;43.526;26.534;2023-08-20T16:00:28;3.92;;;2.22;;
10617;SDS011;5356;43.526;26.534;2023-08-20T16:02:55;3.60;;;2.30;;
10617;SDS011;5356;43.526;26.534;2023-08-20T16:05:21;6.95;;;2.33;;
10617;SDS011;5356;43.526;26.534;2023-08-20T16:07:47;3.63;;;2.33;;
10617;SDS011;5356;43.526;26.534;2023-08-20T16:10:12;4.60;;;2.58;;
10617;SDS011;5356;43.526;26.534;2023-08-20T16:12:38;3.60;;;2.53;;
10617;SDS011;5356;43.526;26.534;2023-08-20T16:15:05;6.50;;;3.28;;
10617;SDS011;5356;43.526;26.534;2023-08-20T16:17:31;4.55;;;2.95;;
10617;SDS011;5356;43.526;26.534;2023-08-20T16:19:56;5.15;;;2.80;;
10617;SDS011;5356;43.526;26.534;2023-08-20T16:22:24;3.45;;;2.75;;